sensor_id;sensor_type;location;lat;lon;timestamp;P1;durP1;ratioP1;P2;durP2;ratioP2
73168;SDS011;61379;59.732;30.468;2023-11-19T00:00:50;9.38;;;8.50;;
73168;SDS011;61379;59.732;30.468;2023-11-19T00:03:17;9.40;;;8.32;;
73168;SDS011;61379;59.732;30.468;2023-11-19T00:05:45;8.40;;;7.57;;
73168;SDS011;61379;59.732;30.468;2023-11-19T00:08:12;9.18;;;7.90;;
73168;SDS011;61379;59.732;30.468;2023-11-19T00:10:39;9.15;;;8.25;;
73168;SDS011;61379;59.732;30.468;2023-11-19T00:13:05;9.50;;;8.63;;
73168;SDS011;61379;59.732;30.468;2023-11-19T00:15:33;8.30;;;7.60;;
73168;SDS011;61379;59.732;30.468;2023-11-19T00:18:00;8.05;;;7.43;;
73168;SDS011;61379;59.732;30.468;2023-11-19T00:20:29;8.80;;;7.35;;
73168;SDS011;61379;59.732;30.468;2023-11-19T00:22:58;9.23;;;8.25;;
73168;SDS011;61379;59.732;30.468;2023-11-19T00:25:26;9.25;;;8.38;;
73168;SDS011;61379;59.732;30.468;2023-11-19T00:27:53;9.02;;;8.25;;
73168;SDS011;61379;59.732;30.468;2023-11-19T00:30:21;9.23;;;8.43;;
73168;SDS011;61379;59.732;30.468;2023-11-19T00:32:48;9.13;;;8.38;;
73168;SDS011;61379;59.732;30.468;2023-11-19T00:35:15;10.10;;;9.18;;
73168;SDS011;61379;59.732;30.468;2023-11-19T00:37:42;9.10;;;8.32;;
73168;SDS011;61379;59.732;30.468;2023-11-19T00:40:12;8.85;;;7.65;;
73168;SDS011;61379;59.732;30.468;2023-11-19T00:45:08;9.10;;;8.30;;
73168;SDS011;61379;59.732;30.468;2023-11-19T00:47:35;9.00;;;8.38;;
73168;SDS011;61379;59.732;30.468;2023-11-19T00:50:02;8.18;;;7.47;;
73168;SDS011;61379;59.732;30.468;2023-11-19T00:52:30;9.10;;;8.32;;
73168;SDS011;61379;59.732;30.468;2023-11-19T00:54:56;8.80;;;8.15;;
73168;SDS011;61379;59.732;30.468;2023-11-19T00:57:25;8.80;;;7.90;;
73168;SDS011;61379;59.732;30.468;2023-11-19T00:59:52;8.77;;;8.18;;
73168;SDS011;61379;59.732;30.468;2023-11-19T01:02:18;9.13;;;8.32;;
73168;SDS011;61379;59.732;30.468;2023-11-19T01:04:46;9.52;;;8.80;;
73168;SDS011;61379;59.732;30.468;2023-11-19T01:07:12;8.73;;;8.13;;
73168;SDS011;61379;59.732;30.468;2023-11-19T01:09:41;10.18;;;9.38;;
73168;SDS011;61379;59.732;30.468;2023-11-19T01:12:08;9.20;;;8.43;;
73168;SDS011;61379;59.732;30.468;2023-11-19T01:14:37;8.55;;;7.75;;
73168;SDS011;61379;59.732;30.468;2023-11-19T01:17:03;8.40;;;7.82;;
73168;SDS011;61379;59.732;30.468;2023-11-19T01:19:31;9.18;;;8.48;;
73168;SDS011;61379;59.732;30.468;2023-11-19T01:21:58;8.15;;;7.55;;
73168;SDS011;61379;59.732;30.468;2023-11-19T01:24:25;8.45;;;7.75;;
73168;SDS011;61379;59.732;30.468;2023-11-19T01:26:53;8.80;;;8.02;;
73168;SDS011;61379;59.732;30.468;2023-11-19T01:29:20;11.05;;;7.38;;
73168;SDS011;61379;59.732;30.468;2023-11-19T01:31:48;9.73;;;8.73;;
73168;SDS011;61379;59.732;30.468;2023-11-19T01:34:16;9.98;;;9.10;;
73168;SDS011;61379;59.732;30.468;2023-11-19T01:36:43;8.30;;;7.80;;
73168;SDS011;61379;59.732;30.468;2023-11-19T01:39:11;8.13;;;7.57;;
73168;SDS011;61379;59.732;30.468;2023-11-19T01:41:41;7.35;;;6.80;;
73168;SDS011;61379;59.732;30.468;2023-11-19T01:44:08;7.80;;;7.20;;
73168;SDS011;61379;59.732;30.468;2023-11-19T01:46:37;7.13;;;6.63;;
73168;SDS011;61379;59.732;30.468;2023-11-19T01:49:06;7.75;;;7.10;;
73168;SDS011;61379;59.732;30.468;2023-11-19T01:51:34;7.10;;;6.45;;
73168;SDS011;61379;59.732;30.468;2023-11-19T01:54:01;8.25;;;7.70;;
73168;SDS011;61379;59.732;30.468;2023-11-19T01:56:28;7.88;;;7.35;;
73168;SDS011;61379;59.732;30.468;2023-11-19T01:58:56;7.00;;;6.30;;
73168;SDS011;61379;59.732;30.468;2023-11-19T02:01:23;8.68;;;7.95;;
73168;SDS011;61379;59.732;30.468;2023-11-19T02:03:50;7.07;;;6.68;;
73168;SDS011;61379;59.732;30.468;2023-11-19T02:06:19;7.18;;;6.68;;
73168;SDS011;61379;59.732;30.468;2023-11-19T02:08:45;7.35;;;6.75;;
73168;SDS011;61379;59.732;30.468;2023-11-19T02:11:12;7.05;;;6.57;;
73168;SDS011;61379;59.732;30.468;2023-11-19T02:13:39;7.85;;;7.25;;
73168;SDS011;61379;59.732;30.468;2023-11-19T02:16:07;8.15;;;7.25;;
73168;SDS011;61379;59.732;30.468;2023-11-19T02:18:35;9.80;;;7.85;;
73168;SDS011;61379;59.732;30.468;2023-11-19T02:21:02;7.35;;;6.85;;
73168;SDS011;61379;59.732;30.468;2023-11-19T02:23:32;8.32;;;7.53;;
73168;SDS011;61379;59.732;30.468;2023-11-19T02:26:03;7.63;;;7.22;;
73168;SDS011;61379;59.732;30.468;2023-11-19T02:28:33;8.80;;;8.20;;
73168;SDS011;61379;59.732;30.468;2023-11-19T02:31:00;8.32;;;7.65;;
73168;SDS011;61379;59.732;30.468;2023-11-19T02:33:27;7.90;;;7.28;;
73168;SDS011;61379;59.732;30.468;2023-11-19T02:35:54;7.25;;;6.55;;
73168;SDS011;61379;59.732;30.468;2023-11-19T02:38:21;8.35;;;7.65;;
73168;SDS011;61379;59.732;30.468;2023-11-19T02:40:48;6.93;;;6.47;;
73168;SDS011;61379;59.732;30.468;2023-11-19T02:43:15;7.25;;;6.57;;
73168;SDS011;61379;59.732;30.468;2023-11-19T02:45:43;7.13;;;6.32;;
73168;SDS011;61379;59.732;30.468;2023-11-19T02:48:11;8.48;;;7.50;;
73168;SDS011;61379;59.732;30.468;2023-11-19T02:50:39;6.78;;;6.28;;
73168;SDS011;61379;59.732;30.468;2023-11-19T02:53:06;7.85;;;7.25;;
73168;SDS011;61379;59.732;30.468;2023-11-19T02:55:33;8.93;;;8.23;;
73168;SDS011;61379;59.732;30.468;2023-11-19T02:58:03;10.23;;;9.40;;
73168;SDS011;61379;59.732;30.468;2023-11-19T03:00:34;9.60;;;8.80;;
73168;SDS011;61379;59.732;30.468;2023-11-19T03:03:08;9.57;;;8.90;;
73168;SDS011;61379;59.732;30.468;2023-11-19T03:05:45;9.68;;;8.85;;
73168;SDS011;61379;59.732;30.468;2023-11-19T03:08:14;8.85;;;8.25;;
73168;SDS011;61379;59.732;30.468;2023-11-19T03:10:42;8.20;;;7.38;;
73168;SDS011;61379;59.732;30.468;2023-11-19T03:13:10;8.82;;;8.23;;
73168;SDS011;61379;59.732;30.468;2023-11-19T03:15:38;9.98;;;9.18;;
73168;SDS011;61379;59.732;30.468;2023-11-19T03:18:04;10.80;;;8.88;;
73168;SDS011;61379;59.732;30.468;2023-11-19T03:20:33;9.32;;;8.52;;
73168;SDS011;61379;59.732;30.468;2023-11-19T03:22:59;10.15;;;9.15;;
73168;SDS011;61379;59.732;30.468;2023-11-19T03:25:27;8.25;;;7.60;;
73168;SDS011;61379;59.732;30.468;2023-11-19T03:27:58;8.63;;;7.78;;
73168;SDS011;61379;59.732;30.468;2023-11-19T03:30:25;9.68;;;8.80;;
73168;SDS011;61379;59.732;30.468;2023-11-19T03:32:51;7.70;;;7.30;;
73168;SDS011;61379;59.732;30.468;2023-11-19T03:35:19;8.43;;;7.85;;
73168;SDS011;61379;59.732;30.468;2023-11-19T03:37:47;8.57;;;7.88;;
73168;SDS011;61379;59.732;30.468;2023-11-19T03:40:13;8.15;;;7.65;;
73168;SDS011;61379;59.732;30.468;2023-11-19T03:42:40;7.50;;;6.97;;
73168;SDS011;61379;59.732;30.468;2023-11-19T03:45:07;8.25;;;7.68;;
73168;SDS011;61379;59.732;30.468;2023-11-19T03:47:34;7.88;;;7.15;;
73168;SDS011;61379;59.732;30.468;2023-11-19T03:50:01;8.80;;;7.97;;
73168;SDS011;61379;59.732;30.468;2023-11-19T03:52:30;8.23;;;7.45;;
73168;SDS011;61379;59.732;30.468;2023-11-19T03:54:58;9.00;;;7.97;;
73168;SDS011;61379;59.732;30.468;2023-11-19T03:57:26;7.82;;;7.07;;
73168;SDS011;61379;59.732;30.468;2023-11-19T03:59:53;9.18;;;8.48;;
73168;SDS011;61379;59.732;30.468;2023-11-19T04:02:20;8.63;;;8.02;;
73168;SDS011;61379;59.732;30.468;2023-11-19T04:04:47;8.18;;;7.47;;
73168;SDS011;61379;59.732;30.468;2023-11-19T04:07:14;8.98;;;8.15;;
73168;SDS011;61379;59.732;30.468;2023-11-19T04:09:41;9.27;;;8.45;;
73168;SDS011;61379;59.732;30.468;2023-11-19T04:12:09;8.63;;;7.93;;
73168;SDS011;61379;59.732;30.468;2023-11-19T04:14:36;9.50;;;8.57;;
73168;SDS011;61379;59.732;30.468;2023-11-19T04:17:03;7.00;;;6.50;;
73168;SDS011;61379;59.732;30.468;2023-11-19T04:19:30;8.48;;;7.78;;
73168;SDS011;61379;59.732;30.468;2023-11-19T04:21:58;7.85;;;7.30;;
73168;SDS011;61379;59.732;30.468;2023-11-19T04:24:24;7.25;;;6.75;;
73168;SDS011;61379;59.732;30.468;2023-11-19T04:26:51;9.52;;;8.68;;
73168;SDS011;61379;59.732;30.468;2023-11-19T04:29:20;8.68;;;7.82;;
73168;SDS011;61379;59.732;30.468;2023-11-19T04:31:46;10.07;;;9.05;;
73168;SDS011;61379;59.732;30.468;2023-11-19T04:34:13;9.70;;;8.90;;
73168;SDS011;61379;59.732;30.468;2023-11-19T04:36:40;10.13;;;9.20;;
73168;SDS011;61379;59.732;30.468;2023-11-19T04:39:07;10.23;;;9.43;;
73168;SDS011;61379;59.732;30.468;2023-11-19T04:41:45;9.55;;;8.90;;
73168;SDS011;61379;59.732;30.468;2023-11-19T04:44:12;10.45;;;9.43;;
73168;SDS011;61379;59.732;30.468;2023-11-19T04:46:40;8.77;;;8.07;;
73168;SDS011;61379;59.732;30.468;2023-11-19T04:49:08;9.20;;;8.45;;
73168;SDS011;61379;59.732;30.468;2023-11-19T04:51:37;9.15;;;8.18;;
73168;SDS011;61379;59.732;30.468;2023-11-19T04:54:04;9.80;;;8.90;;
73168;SDS011;61379;59.732;30.468;2023-11-19T04:56:32;9.65;;;8.77;;
73168;SDS011;61379;59.732;30.468;2023-11-19T04:58:58;9.88;;;8.93;;
73168;SDS011;61379;59.732;30.468;2023-11-19T05:01:25;9.50;;;8.80;;
73168;SDS011;61379;59.732;30.468;2023-11-19T05:03:55;9.38;;;8.38;;
73168;SDS011;61379;59.732;30.468;2023-11-19T05:06:22;10.20;;;9.20;;
73168;SDS011;61379;59.732;30.468;2023-11-19T05:08:49;10.38;;;9.35;;
73168;SDS011;61379;59.732;30.468;2023-11-19T05:11:16;9.32;;;8.60;;
73168;SDS011;61379;59.732;30.468;2023-11-19T05:13:45;9.77;;;9.05;;
73168;SDS011;61379;59.732;30.468;2023-11-19T05:16:11;10.00;;;9.13;;
73168;SDS011;61379;59.732;30.468;2023-11-19T05:18:39;10.77;;;9.70;;
73168;SDS011;61379;59.732;30.468;2023-11-19T05:21:07;9.18;;;8.50;;
73168;SDS011;61379;59.732;30.468;2023-11-19T05:23:34;7.60;;;6.95;;
73168;SDS011;61379;59.732;30.468;2023-11-19T05:26:01;10.35;;;9.35;;
73168;SDS011;61379;59.732;30.468;2023-11-19T05:28:28;9.85;;;8.95;;
73168;SDS011;61379;59.732;30.468;2023-11-19T05:30:54;10.10;;;9.30;;
73168;SDS011;61379;59.732;30.468;2023-11-19T05:33:21;9.50;;;8.57;;
73168;SDS011;61379;59.732;30.468;2023-11-19T05:35:48;10.30;;;9.40;;
73168;SDS011;61379;59.732;30.468;2023-11-19T05:38:16;8.05;;;7.55;;
73168;SDS011;61379;59.732;30.468;2023-11-19T05:40:43;9.75;;;8.95;;
73168;SDS011;61379;59.732;30.468;2023-11-19T05:43:10;8.45;;;7.88;;
73168;SDS011;61379;59.732;30.468;2023-11-19T05:45:36;10.65;;;9.70;;
73168;SDS011;61379;59.732;30.468;2023-11-19T05:48:04;9.10;;;8.40;;
73168;SDS011;61379;59.732;30.468;2023-11-19T05:50:30;10.73;;;9.70;;
73168;SDS011;61379;59.732;30.468;2023-11-19T05:52:57;11.27;;;9.48;;
73168;SDS011;61379;59.732;30.468;2023-11-19T05:55:25;8.60;;;7.80;;
73168;SDS011;61379;59.732;30.468;2023-11-19T05:57:53;13.18;;;11.05;;
73168;SDS011;61379;59.732;30.468;2023-11-19T06:00:20;8.82;;;8.23;;
73168;SDS011;61379;59.732;30.468;2023-11-19T06:02:47;9.57;;;8.68;;
73168;SDS011;61379;59.732;30.468;2023-11-19T06:05:13;12.48;;;8.38;;
73168;SDS011;61379;59.732;30.468;2023-11-19T06:07:40;8.70;;;8.13;;
73168;SDS011;61379;59.732;30.468;2023-11-19T06:10:07;9.95;;;8.95;;
73168;SDS011;61379;59.732;30.468;2023-11-19T06:12:36;9.98;;;8.98;;
73168;SDS011;61379;59.732;30.468;2023-11-19T06:15:06;10.07;;;8.32;;
73168;SDS011;61379;59.732;30.468;2023-11-19T06:17:34;10.90;;;10.00;;
73168;SDS011;61379;59.732;30.468;2023-11-19T06:20:00;12.23;;;11.20;;
73168;SDS011;61379;59.732;30.468;2023-11-19T06:22:29;10.07;;;9.27;;
73168;SDS011;61379;59.732;30.468;2023-11-19T06:24:56;11.95;;;10.85;;
73168;SDS011;61379;59.732;30.468;2023-11-19T06:27:25;14.15;;;11.32;;
73168;SDS011;61379;59.732;30.468;2023-11-19T06:29:53;10.05;;;9.32;;
73168;SDS011;61379;59.732;30.468;2023-11-19T06:32:20;10.15;;;9.25;;
73168;SDS011;61379;59.732;30.468;2023-11-19T06:34:47;9.70;;;8.88;;
73168;SDS011;61379;59.732;30.468;2023-11-19T06:37:14;9.55;;;9.05;;
73168;SDS011;61379;59.732;30.468;2023-11-19T06:39:40;11.50;;;10.50;;
73168;SDS011;61379;59.732;30.468;2023-11-19T06:42:07;10.82;;;9.93;;
73168;SDS011;61379;59.732;30.468;2023-11-19T06:44:34;11.50;;;10.65;;
73168;SDS011;61379;59.732;30.468;2023-11-19T06:47:02;11.10;;;10.10;;
73168;SDS011;61379;59.732;30.468;2023-11-19T06:49:29;10.40;;;9.60;;
73168;SDS011;61379;59.732;30.468;2023-11-19T06:51:56;10.20;;;9.25;;
73168;SDS011;61379;59.732;30.468;2023-11-19T06:54:22;11.02;;;10.02;;
73168;SDS011;61379;59.732;30.468;2023-11-19T06:56:49;11.82;;;10.82;;
73168;SDS011;61379;59.732;30.468;2023-11-19T06:59:16;10.27;;;9.27;;
73168;SDS011;61379;59.732;30.468;2023-11-19T07:01:43;10.98;;;10.15;;
73168;SDS011;61379;59.732;30.468;2023-11-19T07:04:11;12.35;;;11.30;;
73168;SDS011;61379;59.732;30.468;2023-11-19T07:06:38;8.80;;;7.88;;
73168;SDS011;61379;59.732;30.468;2023-11-19T07:09:06;12.18;;;11.25;;
73168;SDS011;61379;59.732;30.468;2023-11-19T07:11:35;11.05;;;10.15;;
73168;SDS011;61379;59.732;30.468;2023-11-19T07:14:04;11.35;;;10.45;;
73168;SDS011;61379;59.732;30.468;2023-11-19T07:16:31;9.38;;;8.77;;
73168;SDS011;61379;59.732;30.468;2023-11-19T07:18:58;10.75;;;9.75;;
73168;SDS011;61379;59.732;30.468;2023-11-19T07:21:26;10.00;;;9.40;;
73168;SDS011;61379;59.732;30.468;2023-11-19T07:23:54;9.85;;;9.25;;
73168;SDS011;61379;59.732;30.468;2023-11-19T07:26:21;11.57;;;10.65;;
73168;SDS011;61379;59.732;30.468;2023-11-19T07:28:48;9.75;;;8.85;;
73168;SDS011;61379;59.732;30.468;2023-11-19T07:31:15;9.70;;;8.90;;
73168;SDS011;61379;59.732;30.468;2023-11-19T07:33:43;10.15;;;9.15;;
73168;SDS011;61379;59.732;30.468;2023-11-19T07:36:10;12.48;;;11.38;;
73168;SDS011;61379;59.732;30.468;2023-11-19T07:38:38;12.07;;;11.18;;
73168;SDS011;61379;59.732;30.468;2023-11-19T07:41:05;11.85;;;10.93;;
73168;SDS011;61379;59.732;30.468;2023-11-19T07:43:32;10.20;;;9.50;;
73168;SDS011;61379;59.732;30.468;2023-11-19T07:45:59;10.88;;;9.98;;
73168;SDS011;61379;59.732;30.468;2023-11-19T07:48:25;9.25;;;8.65;;
73168;SDS011;61379;59.732;30.468;2023-11-19T07:50:52;12.02;;;11.02;;
73168;SDS011;61379;59.732;30.468;2023-11-19T07:53:19;11.55;;;10.55;;
73168;SDS011;61379;59.732;30.468;2023-11-19T07:55:47;9.85;;;8.95;;
73168;SDS011;61379;59.732;30.468;2023-11-19T07:58:14;12.00;;;10.90;;
73168;SDS011;61379;59.732;30.468;2023-11-19T08:00:41;9.82;;;8.98;;
73168;SDS011;61379;59.732;30.468;2023-11-19T08:03:08;10.50;;;9.85;;
73168;SDS011;61379;59.732;30.468;2023-11-19T08:05:34;10.73;;;9.98;;
73168;SDS011;61379;59.732;30.468;2023-11-19T08:08:01;9.75;;;9.07;;
73168;SDS011;61379;59.732;30.468;2023-11-19T08:10:28;10.45;;;9.63;;
73168;SDS011;61379;59.732;30.468;2023-11-19T08:12:56;9.32;;;8.63;;
73168;SDS011;61379;59.732;30.468;2023-11-19T08:15:23;9.98;;;9.18;;
73168;SDS011;61379;59.732;30.468;2023-11-19T08:17:50;11.48;;;10.45;;
73168;SDS011;61379;59.732;30.468;2023-11-19T08:20:16;11.38;;;10.35;;
73168;SDS011;61379;59.732;30.468;2023-11-19T08:22:43;10.20;;;9.48;;
73168;SDS011;61379;59.732;30.468;2023-11-19T08:25:10;11.00;;;9.95;;
73168;SDS011;61379;59.732;30.468;2023-11-19T08:27:37;12.85;;;11.70;;
73168;SDS011;61379;59.732;30.468;2023-11-19T08:30:06;10.50;;;9.70;;
73168;SDS011;61379;59.732;30.468;2023-11-19T08:32:34;9.73;;;8.93;;
73168;SDS011;61379;59.732;30.468;2023-11-19T08:35:01;10.10;;;9.40;;
73168;SDS011;61379;59.732;30.468;2023-11-19T08:37:29;10.70;;;9.80;;
73168;SDS011;61379;59.732;30.468;2023-11-19T08:39:56;10.82;;;9.98;;
73168;SDS011;61379;59.732;30.468;2023-11-19T08:42:23;10.43;;;9.45;;
73168;SDS011;61379;59.732;30.468;2023-11-19T08:44:49;9.77;;;9.07;;
73168;SDS011;61379;59.732;30.468;2023-11-19T08:47:21;10.13;;;9.43;;
73168;SDS011;61379;59.732;30.468;2023-11-19T08:49:50;8.60;;;8.00;;
73168;SDS011;61379;59.732;30.468;2023-11-19T08:52:17;11.38;;;10.48;;
73168;SDS011;61379;59.732;30.468;2023-11-19T08:54:43;10.63;;;9.82;;
73168;SDS011;61379;59.732;30.468;2023-11-19T08:57:10;9.63;;;8.95;;
73168;SDS011;61379;59.732;30.468;2023-11-19T08:59:37;10.00;;;9.40;;
73168;SDS011;61379;59.732;30.468;2023-11-19T09:02:04;9.98;;;9.27;;
73168;SDS011;61379;59.732;30.468;2023-11-19T09:04:32;9.73;;;8.88;;
73168;SDS011;61379;59.732;30.468;2023-11-19T09:06:59;10.77;;;10.07;;
73168;SDS011;61379;59.732;30.468;2023-11-19T09:09:25;11.68;;;10.77;;
73168;SDS011;61379;59.732;30.468;2023-11-19T09:11:52;10.85;;;10.10;;
73168;SDS011;61379;59.732;30.468;2023-11-19T09:14:19;9.55;;;8.65;;
73168;SDS011;61379;59.732;30.468;2023-11-19T09:16:49;9.40;;;8.77;;
73168;SDS011;61379;59.732;30.468;2023-11-19T09:19:16;10.07;;;9.32;;
73168;SDS011;61379;59.732;30.468;2023-11-19T09:21:45;11.27;;;10.48;;
73168;SDS011;61379;59.732;30.468;2023-11-19T09:24:13;10.10;;;9.15;;
73168;SDS011;61379;59.732;30.468;2023-11-19T09:26:40;10.80;;;9.98;;
73168;SDS011;61379;59.732;30.468;2023-11-19T09:29:07;9.98;;;9.18;;
73168;SDS011;61379;59.732;30.468;2023-11-19T09:31:34;10.43;;;9.55;;
73168;SDS011;61379;59.732;30.468;2023-11-19T09:34:01;10.10;;;9.40;;
73168;SDS011;61379;59.732;30.468;2023-11-19T09:36:27;10.65;;;9.75;;
73168;SDS011;61379;59.732;30.468;2023-11-19T09:38:56;10.93;;;10.05;;
73168;SDS011;61379;59.732;30.468;2023-11-19T09:41:22;9.32;;;8.60;;
73168;SDS011;61379;59.732;30.468;2023-11-19T09:43:50;9.10;;;8.50;;
73168;SDS011;61379;59.732;30.468;2023-11-19T09:46:17;11.13;;;10.43;;
73168;SDS011;61379;59.732;30.468;2023-11-19T09:48:45;9.85;;;9.15;;
73168;SDS011;61379;59.732;30.468;2023-11-19T09:51:13;11.20;;;10.40;;
73168;SDS011;61379;59.732;30.468;2023-11-19T09:53:40;10.88;;;10.18;;
73168;SDS011;61379;59.732;30.468;2023-11-19T09:56:08;11.07;;;10.27;;
73168;SDS011;61379;59.732;30.468;2023-11-19T09:58:35;10.98;;;10.27;;
73168;SDS011;61379;59.732;30.468;2023-11-19T10:01:02;10.65;;;10.00;;
73168;SDS011;61379;59.732;30.468;2023-11-19T10:03:32;9.38;;;8.77;;
73168;SDS011;61379;59.732;30.468;2023-11-19T10:05:59;11.07;;;10.35;;
73168;SDS011;61379;59.732;30.468;2023-11-19T10:08:27;9.20;;;8.60;;
73168;SDS011;61379;59.732;30.468;2023-11-19T10:10:54;11.20;;;10.30;;
73168;SDS011;61379;59.732;30.468;2023-11-19T10:13:25;10.32;;;9.63;;
73168;SDS011;61379;59.732;30.468;2023-11-19T10:15:52;11.20;;;10.50;;
73168;SDS011;61379;59.732;30.468;2023-11-19T10:18:23;10.57;;;9.88;;
73168;SDS011;61379;59.732;30.468;2023-11-19T10:20:50;11.23;;;10.43;;
73168;SDS011;61379;59.732;30.468;2023-11-19T10:23:16;10.88;;;10.18;;
73168;SDS011;61379;59.732;30.468;2023-11-19T10:25:43;10.98;;;10.27;;
73168;SDS011;61379;59.732;30.468;2023-11-19T10:28:10;10.13;;;9.32;;
73168;SDS011;61379;59.732;30.468;2023-11-19T10:30:38;10.05;;;9.25;;
73168;SDS011;61379;59.732;30.468;2023-11-19T10:33:05;9.27;;;8.57;;
73168;SDS011;61379;59.732;30.468;2023-11-19T10:35:33;9.77;;;9.18;;
73168;SDS011;61379;59.732;30.468;2023-11-19T10:38:00;9.00;;;8.20;;
73168;SDS011;61379;59.732;30.468;2023-11-19T10:40:39;10.18;;;9.45;;
73168;SDS011;61379;59.732;30.468;2023-11-19T10:43:07;10.32;;;9.60;;
73168;SDS011;61379;59.732;30.468;2023-11-19T10:45:34;10.32;;;9.52;;
73168;SDS011;61379;59.732;30.468;2023-11-19T10:48:03;10.25;;;9.52;;
73168;SDS011;61379;59.732;30.468;2023-11-19T10:50:32;10.57;;;9.75;;
73168;SDS011;61379;59.732;30.468;2023-11-19T10:52:59;10.65;;;9.95;;
73168;SDS011;61379;59.732;30.468;2023-11-19T10:55:27;10.88;;;10.13;;
73168;SDS011;61379;59.732;30.468;2023-11-19T10:57:55;10.52;;;9.82;;
73168;SDS011;61379;59.732;30.468;2023-11-19T11:00:24;9.50;;;8.85;;
73168;SDS011;61379;59.732;30.468;2023-11-19T11:02:53;10.30;;;9.60;;
73168;SDS011;61379;59.732;30.468;2023-11-19T11:05:23;9.00;;;8.00;;
73168;SDS011;61379;59.732;30.468;2023-11-19T11:10:17;9.30;;;8.63;;
73168;SDS011;61379;59.732;30.468;2023-11-19T11:12:47;11.45;;;10.63;;
73168;SDS011;61379;59.732;30.468;2023-11-19T11:15:18;10.43;;;9.73;;
73168;SDS011;61379;59.732;30.468;2023-11-19T11:17:46;10.10;;;9.40;;
73168;SDS011;61379;59.732;30.468;2023-11-19T11:20:13;9.13;;;8.63;;
73168;SDS011;61379;59.732;30.468;2023-11-19T11:22:50;9.50;;;8.70;;
73168;SDS011;61379;59.732;30.468;2023-11-19T11:25:24;10.63;;;9.93;;
73168;SDS011;61379;59.732;30.468;2023-11-19T11:27:59;10.00;;;9.20;;
73168;SDS011;61379;59.732;30.468;2023-11-19T11:30:31;10.70;;;10.00;;
73168;SDS011;61379;59.732;30.468;2023-11-19T11:33:05;7.72;;;7.22;;
73168;SDS011;61379;59.732;30.468;2023-11-19T11:35:35;9.32;;;8.43;;
73168;SDS011;61379;59.732;30.468;2023-11-19T11:38:09;13.07;;;11.93;;
73168;SDS011;61379;59.732;30.468;2023-11-19T11:40:35;11.07;;;10.13;;
73168;SDS011;61379;59.732;30.468;2023-11-19T11:43:02;10.77;;;10.05;;
73168;SDS011;61379;59.732;30.468;2023-11-19T11:45:35;10.65;;;9.95;;
73168;SDS011;61379;59.732;30.468;2023-11-19T11:48:11;10.82;;;10.13;;
73168;SDS011;61379;59.732;30.468;2023-11-19T11:53:29;9.85;;;9.25;;
73168;SDS011;61379;59.732;30.468;2023-11-19T11:55:57;11.20;;;10.50;;
73168;SDS011;61379;59.732;30.468;2023-11-19T11:58:29;9.50;;;8.88;;
73168;SDS011;61379;59.732;30.468;2023-11-19T12:00:57;11.05;;;10.35;;
73168;SDS011;61379;59.732;30.468;2023-11-19T12:03:26;11.27;;;10.35;;
73168;SDS011;61379;59.732;30.468;2023-11-19T12:05:53;11.25;;;10.55;;
73168;SDS011;61379;59.732;30.468;2023-11-19T12:08:20;10.10;;;9.40;;
73168;SDS011;61379;59.732;30.468;2023-11-19T12:10:53;9.57;;;8.98;;
73168;SDS011;61379;59.732;30.468;2023-11-19T12:13:20;9.35;;;8.68;;
73168;SDS011;61379;59.732;30.468;2023-11-19T12:18:32;8.55;;;8.05;;
73168;SDS011;61379;59.732;30.468;2023-11-19T12:20:59;9.30;;;8.75;;
73168;SDS011;61379;59.732;30.468;2023-11-19T12:23:27;9.73;;;8.95;;
73168;SDS011;61379;59.732;30.468;2023-11-19T12:25:56;10.63;;;9.82;;
73168;SDS011;61379;59.732;30.468;2023-11-19T12:28:23;10.05;;;9.35;;
73168;SDS011;61379;59.732;30.468;2023-11-19T12:30:52;9.60;;;8.95;;
73168;SDS011;61379;59.732;30.468;2023-11-19T12:33:19;9.75;;;8.75;;
73168;SDS011;61379;59.732;30.468;2023-11-19T12:35:47;10.20;;;9.32;;
73168;SDS011;61379;59.732;30.468;2023-11-19T12:38:18;9.23;;;8.63;;
73168;SDS011;61379;59.732;30.468;2023-11-19T12:40:45;9.02;;;8.52;;
73168;SDS011;61379;59.732;30.468;2023-11-19T12:43:13;9.25;;;8.55;;
73168;SDS011;61379;59.732;30.468;2023-11-19T12:45:47;8.55;;;7.93;;
73168;SDS011;61379;59.732;30.468;2023-11-19T12:48:14;7.68;;;7.20;;
73168;SDS011;61379;59.732;30.468;2023-11-19T12:50:50;7.78;;;7.28;;
73168;SDS011;61379;59.732;30.468;2023-11-19T12:53:17;8.50;;;7.80;;
73168;SDS011;61379;59.732;30.468;2023-11-19T12:55:44;9.18;;;8.38;;
73168;SDS011;61379;59.732;30.468;2023-11-19T13:01:00;9.18;;;8.57;;
73168;SDS011;61379;59.732;30.468;2023-11-19T13:03:30;9.15;;;8.55;;
73168;SDS011;61379;59.732;30.468;2023-11-19T13:06:03;9.68;;;8.88;;
73168;SDS011;61379;59.732;30.468;2023-11-19T13:08:35;10.02;;;9.15;;
73168;SDS011;61379;59.732;30.468;2023-11-19T13:11:03;9.32;;;8.50;;
73168;SDS011;61379;59.732;30.468;2023-11-19T13:13:30;9.20;;;8.40;;
73168;SDS011;61379;59.732;30.468;2023-11-19T13:16:02;9.85;;;8.93;;
73168;SDS011;61379;59.732;30.468;2023-11-19T13:30:58;13.32;;;12.00;;
73168;SDS011;61379;59.732;30.468;2023-11-19T13:33:25;12.35;;;10.93;;
73168;SDS011;61379;59.732;30.468;2023-11-19T13:35:52;9.38;;;8.18;;
73168;SDS011;61379;59.732;30.468;2023-11-19T13:38:19;10.00;;;7.43;;
73168;SDS011;61379;59.732;30.468;2023-11-19T13:40:45;8.00;;;7.20;;
73168;SDS011;61379;59.732;30.468;2023-11-19T13:43:13;5.85;;;5.35;;
73168;SDS011;61379;59.732;30.468;2023-11-19T13:45:40;7.15;;;6.45;;
73168;SDS011;61379;59.732;30.468;2023-11-19T13:48:08;6.95;;;6.25;;
73168;SDS011;61379;59.732;30.468;2023-11-19T13:50:35;8.43;;;7.55;;
73168;SDS011;61379;59.732;30.468;2023-11-19T13:53:02;8.02;;;7.30;;
73168;SDS011;61379;59.732;30.468;2023-11-19T13:55:30;8.23;;;7.50;;
73168;SDS011;61379;59.732;30.468;2023-11-19T13:57:57;8.00;;;7.20;;
73168;SDS011;61379;59.732;30.468;2023-11-19T14:00:23;9.18;;;7.10;;
73168;SDS011;61379;59.732;30.468;2023-11-19T14:02:50;7.90;;;6.65;;
73168;SDS011;61379;59.732;30.468;2023-11-19T14:05:18;10.52;;;8.73;;
73168;SDS011;61379;59.732;30.468;2023-11-19T14:07:45;7.40;;;6.72;;
73168;SDS011;61379;59.732;30.468;2023-11-19T14:10:14;7.43;;;6.70;;
73168;SDS011;61379;59.732;30.468;2023-11-19T14:23:44;11.57;;;8.80;;
73168;SDS011;61379;59.732;30.468;2023-11-19T14:26:11;9.85;;;8.07;;
73168;SDS011;61379;59.732;30.468;2023-11-19T14:28:38;8.52;;;7.45;;
73168;SDS011;61379;59.732;30.468;2023-11-19T14:31:05;9.25;;;7.57;;
73168;SDS011;61379;59.732;30.468;2023-11-19T14:33:31;11.65;;;9.45;;
73168;SDS011;61379;59.732;30.468;2023-11-19T14:36:00;10.93;;;8.85;;
73168;SDS011;61379;59.732;30.468;2023-11-19T14:38:27;9.88;;;8.82;;
73168;SDS011;61379;59.732;30.468;2023-11-19T14:40:55;10.82;;;8.38;;
73168;SDS011;61379;59.732;30.468;2023-11-19T14:43:24;12.32;;;8.38;;
73168;SDS011;61379;59.732;30.468;2023-11-19T14:45:51;10.63;;;7.38;;
73168;SDS011;61379;59.732;30.468;2023-11-19T14:48:18;9.80;;;7.32;;
73168;SDS011;61379;59.732;30.468;2023-11-19T14:50:45;10.60;;;8.68;;
73168;SDS011;61379;59.732;30.468;2023-11-19T14:53:12;10.23;;;7.82;;
73168;SDS011;61379;59.732;30.468;2023-11-19T14:55:39;7.82;;;7.03;;
73168;SDS011;61379;59.732;30.468;2023-11-19T14:58:07;8.45;;;7.10;;
73168;SDS011;61379;59.732;30.468;2023-11-19T15:00:33;12.57;;;8.27;;
73168;SDS011;61379;59.732;30.468;2023-11-19T15:03:00;12.07;;;7.70;;
73168;SDS011;61379;59.732;30.468;2023-11-19T15:05:27;10.57;;;7.05;;